Time;durP1;ratioP1;P1;durP2;ratioP2;P2;SDS_P1;SDS_P2;PMS_P1;PMS_P2;Temp;Humidity;BMP_temperature;BMP_pressure;BME280_temperature;BME280_humidity;BME280_pressure;Samples;Min_cycle;Max_cycle;Signal;HPM_P1;HPM_P2
2022/06/22 00:00:23;;;;;;;2.50;2.13;;;14.30;99.90;;;;;;5048788;28;20070;-45
2022/06/22 00:02:53;;;;;;;7.35;2.75;;;14.40;99.90;;;;;;5046064;28;20052;-44
2022/06/22 00:05:27;;;;;;;4.07;2.17;;;14.40;99.90;;;;;;5040784;28;20033;-44
2022/06/22 00:07:57;;;;;;;5.30;2.53;;;14.50;99.90;;;;;;5049418;28;20033;-44
2022/06/22 00:10:30;;;;;;;3.85;2.65;;;14.50;99.90;;;;;;5048585;28;20021;-44
2022/06/22 00:12:58;;;;;;;6.15;2.70;;;14.50;99.90;;;;;;5049308;28;20031;-46
2022/06/22 00:15:31;;;;;;;3.65;2.42;;;14.50;99.90;;;;;;5048969;28;20029;-44
2022/06/22 00:17:57;;;;;;;5.25;2.60;;;14.50;99.90;;;;;;5048977;28;20071;-44
2022/06/22 00:20:29;;;;;;;4.68;2.80;;;14.50;99.90;;;;;;5047947;28;20025;-45
2022/06/22 00:23:14;;;;;;;4.43;2.38;;;14.50;99.90;;;;;;5048780;28;20056;-43
2022/06/22 00:25:40;;;;;;;4.15;2.63;;;14.40;99.90;;;;;;5048450;28;20036;-46
2022/06/22 00:28:53;;;;;;;9.88;2.95;;;14.40;99.90;;;;;;5048801;28;20029;-46
2022/06/22 00:31:34;;;;;;;4.75;2.67;;;14.30;99.90;;;;;;5037273;28;20647;-45
2022/06/22 00:34:09;;;;;;;5.20;2.60;;;14.20;99.90;;;;;;5039835;28;20115;-44
2022/06/22 00:36:49;;;;;;;4.68;2.92;;;14.20;99.90;;;;;;5008817;28;20483;-45
2022/06/22 00:39:25;;;;;;;4.55;2.63;;;14.20;99.90;;;;;;5009290;28;20034;-43
2022/06/22 00:41:56;;;;;;;4.55;2.50;;;14.20;99.90;;;;;;5008974;28;20030;-43
2022/06/22 00:44:24;;;;;;;3.63;2.47;;;14.20;99.90;;;;;;5007941;28;20028;-45
2022/06/22 00:47:07;;;;;;;5.18;2.72;;;14.10;99.90;;;;;;5009202;28;20034;-45
2022/06/22 00:49:34;;;;;;;4.20;2.67;;;14.00;99.90;;;;;;5008884;28;20025;-46
2022/06/22 00:52:02;;;;;;;3.83;2.72;;;14.00;99.90;;;;;;5008849;28;20052;-44
2022/06/22 00:54:31;;;;;;;6.30;3.58;;;13.90;99.90;;;;;;5012571;28;20054;-44
2022/06/22 00:57:05;;;;;;;6.68;3.47;;;13.90;99.90;;;;;;5011757;28;20129;-44
2022/06/22 00:59:37;;;;;;;4.82;3.28;;;13.90;99.90;;;;;;5012349;28;20061;-45
2022/06/22 01:02:15;;;;;;;5.45;2.97;;;13.90;99.90;;;;;;5013652;28;20029;-44
2022/06/22 01:04:55;;;;;;;7.32;2.60;;;13.90;99.90;;;;;;5032318;28;20021;-46
2022/06/22 01:07:41;;;;;;;7.20;3.33;;;13.90;99.90;;;;;;5032664;28;20033;-45
2022/06/22 01:10:15;;;;;;;7.88;3.17;;;13.80;99.90;;;;;;5031807;28;20124;-45
2022/06/22 01:13:13;;;;;;;4.40;2.65;;;13.80;99.90;;;;;;5032023;28;20412;-45
2022/06/22 01:15:52;;;;;;;6.75;2.90;;;13.80;99.90;;;;;;5032334;28;20064;-45
2022/06/22 01:18:27;;;;;;;3.90;3.30;;;13.80;99.90;;;;;;5032342;28;20017;-45
2022/06/22 01:20:58;;;;;;;5.65;3.03;;;13.70;99.90;;;;;;5031638;28;20060;-44
2022/06/22 01:24:05;;;;;;;5.22;2.85;;;13.70;99.90;;;;;;5032109;28;20108;-48
2022/06/22 01:27:09;;;;;;;3.22;2.63;;;13.70;99.90;;;;;;5030949;28;20029;-45
2022/06/22 01:29:35;;;;;;;3.63;3.05;;;13.60;99.90;;;;;;5030777;28;20038;-46
2022/06/22 01:32:01;;;;;;;6.30;3.08;;;13.50;99.90;;;;;;5032076;28;20037;-45
2022/06/22 01:34:34;;;;;;;2.72;2.45;;;13.50;99.90;;;;;;5042725;28;20018;-45
2022/06/22 01:37:02;;;;;;;6.32;3.35;;;13.40;99.90;;;;;;5051921;28;20033;-45
2022/06/22 01:39:28;;;;;;;4.32;2.95;;;13.40;99.90;;;;;;5051835;28;20060;-45
2022/06/22 01:42:02;;;;;;;5.15;3.17;;;13.30;99.90;;;;;;5051630;28;20430;-45
2022/06/22 01:44:36;;;;;;;5.75;3.58;;;13.40;99.90;;;;;;5050449;28;20545;-46
2022/06/22 01:47:27;;;;;;;4.00;3.10;;;13.50;99.90;;;;;;5051643;28;20061;-44
2022/06/22 01:50:02;;;;;;;5.03;3.15;;;13.40;99.90;;;;;;5050869;28;20402;-45
2022/06/22 01:52:50;;;;;;;4.47;3.35;;;13.30;99.90;;;;;;5050039;28;20047;-44
2022/06/22 01:55:30;;;;;;;4.80;3.13;;;13.20;99.90;;;;;;5051582;28;20534;-46
2022/06/22 01:58:29;;;;;;;5.05;3.60;;;13.10;99.90;;;;;;5051461;28;20075;-45
2022/06/22 02:01:09;;;;;;;5.00;3.33;;;13.20;99.90;;;;;;5050909;28;20020;-45
2022/06/22 02:03:54;;;;;;;6.78;3.00;;;13.20;99.90;;;;;;5045808;28;20121;-47
2022/06/22 02:09:19;;;;;;;3.63;3.13;;;13.00;99.90;;;;;;5051440;28;20136;-43
2022/06/22 02:11:51;;;;;;;10.40;4.25;;;13.00;99.90;;;;;;5050728;28;20029;-44
2022/06/22 02:14:22;;;;;;;6.57;3.60;;;13.00;99.90;;;;;;5051589;28;20037;-44
2022/06/22 02:16:53;;;;;;;5.72;3.35;;;12.90;99.90;;;;;;5050290;28;20083;-44
2022/06/22 02:19:20;;;;;;;5.13;3.00;;;12.90;99.90;;;;;;5051706;28;20031;-43
2022/06/22 02:21:52;;;;;;;5.18;3.30;;;12.80;99.90;;;;;;5050806;28;20040;-44
2022/06/22 02:24:27;;;;;;;6.28;3.50;;;12.80;99.90;;;;;;5051378;28;20075;-44
2022/06/22 02:27:03;;;;;;;5.55;3.55;;;12.70;99.90;;;;;;5051443;28;20427;-44
2022/06/22 02:29:34;;;;;;;5.00;3.22;;;12.60;99.90;;;;;;5050974;28;20059;-44
2022/06/22 02:32:00;;;;;;;;;;;12.60;99.90;;;;;;5049454;28;20102;-44
2022/06/22 02:34:28;;;;;;;8.60;4.05;;;12.50;99.90;;;;;;5041578;28;19913;-44
2022/06/22 02:36:54;;;;;;;6.05;3.65;;;12.50;99.90;;;;;;5050552;28;20116;-43
2022/06/22 02:39:24;;;;;;;4.72;3.55;;;12.50;99.90;;;;;;5051131;28;20139;-44
2022/06/22 02:44:40;;;;;;;4.20;3.20;;;12.40;99.90;;;;;;5050784;28;20040;-43
2022/06/22 02:47:25;;;;;;;4.53;3.42;;;12.40;99.90;;;;;;5050424;28;20029;-44
2022/06/22 02:49:59;;;;;;;7.05;3.78;;;12.40;99.90;;;;;;5039983;28;20048;-45
2022/06/22 02:52:36;;;;;;;6.50;3.58;;;12.30;99.90;;;;;;5020761;28;20403;-43
2022/06/22 02:55:01;;;;;;;5.32;3.70;;;12.20;99.90;;;;;;5026952;28;20030;-43
2022/06/22 02:57:48;;;;;;;6.45;3.65;;;12.20;99.90;;;;;;5029580;28;20030;-45
2022/06/22 03:00:16;;;;;;;5.10;3.92;;;12.10;99.90;;;;;;5018584;28;20395;-43
2022/06/22 03:02:43;;;;;;;8.02;4.65;;;12.10;99.90;;;;;;5023626;28;20033;-45
2022/06/22 03:05:10;;;;;;;8.32;4.07;;;12.00;99.90;;;;;;5025546;28;20052;-44
2022/06/22 03:07:39;;;;;;;4.30;3.85;;;12.10;99.90;;;;;;5022118;28;20025;-44
2022/06/22 03:10:07;;;;;;;6.88;4.10;;;12.00;99.90;;;;;;5029621;28;20258;-45
2022/06/22 03:12:32;;;;;;;7.53;3.95;;;12.00;99.90;;;;;;5030543;28;20022;-47
2022/06/22 03:15:02;;;;;;;9.57;4.63;;;12.00;99.90;;;;;;5030065;28;20414;-44
2022/06/22 03:17:33;;;;;;;4.63;3.95;;;12.00;99.90;;;;;;5029476;28;20060;-45
2022/06/22 03:20:03;;;;;;;9.52;4.18;;;12.00;99.90;;;;;;5029432;28;20032;-45
2022/06/22 03:22:52;;;;;;;8.60;4.50;;;12.10;99.90;;;;;;5029951;28;20032;-45
2022/06/22 03:25:19;;;;;;;5.55;3.80;;;12.10;99.90;;;;;;5029893;28;20491;-45
2022/06/22 03:27:52;;;;;;;5.72;4.30;;;12.20;99.90;;;;;;5029858;28;20026;-46
2022/06/22 03:30:21;;;;;;;4.80;4.13;;;12.10;99.90;;;;;;5027839;28;20051;-47
2022/06/22 03:33:05;;;;;;;5.60;4.30;;;12.10;99.90;;;;;;5033575;28;20021;-45
2022/06/22 03:35:53;;;;;;;7.35;4.13;;;12.10;99.90;;;;;;5035031;28;20061;-46
2022/06/22 03:38:37;;;;;;;9.80;4.45;;;12.10;99.90;;;;;;5020626;28;20024;-49
2022/06/22 03:41:08;;;;;;;5.68;4.57;;;12.10;99.90;;;;;;5019983;28;20272;-45
2022/06/22 03:43:41;;;;;;;5.57;4.40;;;12.10;99.90;;;;;;5018946;28;20018;-46
2022/06/22 03:46:19;;;;;;;5.60;4.88;;;12.10;99.90;;;;;;5019876;28;20034;-44
2022/06/22 03:49:01;;;;;;;6.25;4.28;;;12.10;99.90;;;;;;5020526;28;20018;-45
2022/06/22 03:52:13;;;;;;;5.82;4.78;;;12.20;99.90;;;;;;5019756;28;20013;-44
2022/06/22 03:54:48;;;;;;;5.75;4.85;;;12.30;99.90;;;;;;4968062;28;20077;-44
2022/06/22 03:57:19;;;;;;;9.95;5.22;;;12.30;99.90;;;;;;4968158;28;20070;-46
2022/06/22 03:59:46;;;;;;;;;;;12.30;99.90;;;;;;4993718;28;20683;-44
2022/06/22 04:02:12;;;;;;;10.07;5.85;;;12.40;99.90;;;;;;5017894;28;19940;-44
2022/06/22 04:04:38;;;;;;;6.97;5.18;;;12.50;99.90;;;;;;5033450;28;20021;-44
2022/06/22 04:07:05;;;;;;;8.68;5.43;;;12.50;99.90;;;;;;5020255;28;20032;-44
2022/06/22 04:09:30;;;;;;;8.20;4.75;;;12.60;99.90;;;;;;5019535;28;20112;-44
2022/06/22 04:12:27;;;;;;;6.43;4.72;;;12.60;99.90;;;;;;5024454;28;20112;-45
2022/06/22 04:15:07;;;;;;;6.13;4.82;;;12.70;99.90;;;;;;5029040;28;20025;-45
2022/06/22 04:17:45;;;;;;;5.28;4.63;;;12.70;99.90;;;;;;5009489;28;20539;-46
2022/06/22 04:20:50;;;;;;;7.82;4.85;;;12.70;99.90;;;;;;5008822;28;20076;-48
2022/06/22 04:23:48;;;;;;;6.60;5.40;;;12.80;99.90;;;;;;5026933;28;20418;-44
2022/06/22 04:26:29;;;;;;;6.50;5.18;;;12.80;99.90;;;;;;5023518;28;20041;-44
2022/06/22 04:29:01;;;;;;;8.02;4.95;;;12.80;99.90;;;;;;5028107;28;20128;-44
2022/06/22 04:31:31;;;;;;;8.82;5.22;;;12.90;99.90;;;;;;5015340;28;20548;-45
2022/06/22 04:34:05;;;;;;;7.88;5.13;;;12.90;99.90;;;;;;5033561;28;20033;-45
2022/06/22 04:36:38;;;;;;;9.45;5.53;;;13.00;99.90;;;;;;5029952;28;20060;-46
2022/06/22 04:39:31;;;;;;;9.60;5.50;;;13.00;99.90;;;;;;5021531;28;20025;-45
2022/06/22 04:42:00;;;;;;;7.45;5.30;;;13.00;99.90;;;;;;5008620;28;20097;-45
2022/06/22 04:44:29;;;;;;;9.13;6.07;;;13.10;99.90;;;;;;5008736;28;20521;-45
2022/06/22 04:47:03;;;;;;;5.70;4.72;;;13.10;99.90;;;;;;5008777;28;20164;-45
2022/06/22 04:49:33;;;;;;;8.25;5.63;;;13.20;99.90;;;;;;5008588;28;20026;-46
2022/06/22 04:52:12;;;;;;;9.27;6.55;;;13.30;99.90;;;;;;5010533;28;20026;-44
2022/06/22 04:54:40;;;;;;;7.32;5.50;;;13.30;99.90;;;;;;5020582;28;20026;-45
2022/06/22 04:57:25;;;;;;;8.10;6.32;;;13.40;99.90;;;;;;5026594;28;20052;-48
2022/06/22 04:59:52;;;;;;;8.88;6.40;;;13.50;99.90;;;;;;5025997;28;20128;-44
2022/06/22 05:02:21;;;;;;;13.68;8.73;;;13.50;99.90;;;;;;5022488;28;20022;-43
2022/06/22 05:04:51;;;;;;;9.90;7.68;;;13.60;99.90;;;;;;5019463;28;20018;-44
2022/06/22 05:07:35;;;;;;;12.70;7.97;;;13.70;99.90;;;;;;5030724;28;20033;-44
2022/06/22 05:10:14;;;;;;;9.88;7.40;;;13.80;99.90;;;;;;5027944;28;20029;-46
2022/06/22 05:12:54;;;;;;;7.85;7.00;;;13.80;99.90;;;;;;5028872;28;20314;-44
2022/06/22 05:15:28;;;;;;;9.07;7.10;;;13.90;99.90;;;;;;5029430;28;20029;-44
2022/06/22 05:17:55;;;;;;;9.65;6.32;;;14.00;99.90;;;;;;5027325;28;20399;-45
2022/06/22 05:20:27;;;;;;;11.40;7.68;;;14.00;99.90;;;;;;5026909;28;20037;-47
2022/06/22 05:22:55;;;;;;;11.50;6.75;;;14.10;99.90;;;;;;5025243;28;20168;-44
2022/06/22 05:25:21;;;;;;;9.52;7.43;;;14.10;99.90;;;;;;5024313;28;20021;-45
2022/06/22 05:28:05;;;;;;;11.50;6.70;;;14.20;99.90;;;;;;5024708;28;20091;-46
2022/06/22 05:30:37;;;;;;;11.05;7.78;;;14.20;99.90;;;;;;5025158;28;20135;-44
2022/06/22 05:33:09;;;;;;;7.22;6.00;;;14.20;99.90;;;;;;5027449;28;20124;-44
2022/06/22 05:35:38;;;;;;;11.18;7.70;;;14.30;99.90;;;;;;5025634;28;20225;-46
2022/06/22 05:38:07;;;;;;;9.10;6.68;;;14.40;99.90;;;;;;5027336;28;20037;-44
2022/06/22 05:40:34;;;;;;;13.63;7.90;;;14.40;99.90;;;;;;5029454;28;20537;-45
2022/06/22 05:43:00;;;;;;;10.48;6.43;;;14.40;99.90;;;;;;5030024;28;20465;-45
2022/06/22 05:45:29;;;;;;;10.48;7.05;;;14.50;99.90;;;;;;5022837;28;20133;-45
2022/06/22 05:47:56;;;;;;;10.30;6.57;;;14.60;99.90;;;;;;5031705;28;20028;-45
2022/06/22 05:50:46;;;;;;;8.35;6.43;;;14.60;99.90;;;;;;5030509;28;20021;-44
2022/06/22 05:53:24;;;;;;;7.40;5.87;;;14.70;99.90;;;;;;5030398;28;20386;-45
2022/06/22 05:56:14;;;;;;;7.28;6.40;;;14.70;99.90;;;;;;5031145;28;20034;-45
2022/06/22 05:59:07;;;;;;;6.22;5.43;;;14.80;99.90;;;;;;5031279;28;20021;-45
2022/06/22 06:02:10;;;;;;;9.38;5.90;;;14.90;99.90;;;;;;5030135;28;20038;-46
2022/06/22 06:04:51;;;;;;;10.60;5.80;;;15.00;99.90;;;;;;5022233;28;20025;-45
2022/06/22 06:07:27;;;;;;;9.30;5.47;;;15.10;99.90;;;;;;5031176;28;20475;-44
2022/06/22 06:09:52;;;;;;;6.63;5.93;;;15.20;99.90;;;;;;5030521;28;20144;-48
2022/06/22 06:12:25;;;;;;;5.93;5.28;;;15.20;99.90;;;;;;5031336;28;20025;-45
2022/06/22 06:14:53;;;;;;;6.75;4.45;;;15.30;99.90;;;;;;5031041;28;20048;-46
2022/06/22 06:17:28;;;;;;;4.90;4.40;;;15.40;99.90;;;;;;5030963;28;20028;-45
2022/06/22 06:19:55;;;;;;;6.15;4.38;;;15.50;99.90;;;;;;5032309;28;20039;-47
2022/06/22 06:22:22;;;;;;;8.15;4.88;;;15.60;99.90;;;;;;5047370;28;20051;-45
2022/06/22 06:28:10;;;;;;;8.70;4.78;;;15.70;99.90;;;;;;5031031;28;20074;-45
2022/06/22 06:30:46;;;;;;;6.05;4.57;;;15.80;99.90;;;;;;5030173;28;20029;-46
2022/06/22 06:33:21;;;;;;;6.10;4.22;;;16.00;99.90;;;;;;5030744;28;20624;-44
2022/06/22 06:35:51;;;;;;;6.60;5.05;;;16.10;99.90;;;;;;5029708;28;20041;-45
2022/06/22 06:38:27;;;;;;;6.05;4.63;;;16.20;99.90;;;;;;5030950;28;20048;-45
2022/06/22 06:41:01;;;;;;;8.85;5.03;;;16.20;99.90;;;;;;5028959;28;20534;-44
2022/06/22 06:43:30;;;;;;;6.90;4.32;;;16.30;99.90;;;;;;5030608;28;20467;-44
2022/06/22 06:45:58;;;;;;;6.95;5.07;;;16.40;99.90;;;;;;5030655;28;20026;-45
2022/06/22 06:48:26;;;;;;;9.60;6.40;;;16.50;99.90;;;;;;5030498;28;20108;-46
2022/06/22 06:50:56;;;;;;;15.18;6.90;;;16.70;99.90;;;;;;5028979;28;20025;-44
2022/06/22 06:53:35;;;;;;;9.18;6.78;;;16.80;99.90;;;;;;5028939;28;20465;-45
2022/06/22 06:56:07;;;;;;;14.27;6.63;;;16.90;99.90;;;;;;5030400;28;20112;-45
2022/06/22 06:58:55;;;;;;;9.65;6.60;;;17.10;99.90;;;;;;5030310;28;20040;-45
2022/06/22 07:01:23;;;;;;;14.18;6.75;;;17.10;99.90;;;;;;5029962;28;20399;-45
2022/06/22 07:03:53;;;;;;;8.55;6.30;;;17.20;99.90;;;;;;5030190;28;20036;-44
2022/06/22 07:06:19;;;;;;;8.52;5.80;;;17.30;99.90;;;;;;5030332;28;20026;-45
2022/06/22 07:08:53;;;;;;;7.00;5.47;;;17.40;99.90;;;;;;5030700;28;20471;-44
2022/06/22 07:11:31;;;;;;;8.80;5.93;;;17.50;99.90;;;;;;5026827;28;20415;-47
2022/06/22 07:14:15;;;;;;;6.75;4.15;;;17.60;99.90;;;;;;5044491;28;20060;-46
2022/06/22 07:16:41;;;;;;;7.00;4.60;;;17.70;99.90;;;;;;5027915;28;20036;-46
2022/06/22 07:19:25;;;;;;;8.95;5.00;;;17.80;99.90;;;;;;5029412;28;20116;-46
2022/06/22 07:22:00;;;;;;;6.10;3.80;;;18.00;99.90;;;;;;5027818;28;20037;-46
2022/06/22 07:24:33;;;;;;;10.48;4.75;;;18.10;99.90;;;;;;5027372;28;20479;-46
2022/06/22 07:27:25;;;;;;;7.15;4.97;;;18.20;99.90;;;;;;5027827;28;20022;-46
2022/06/22 07:30:00;;;;;;;7.50;4.70;;;18.30;99.90;;;;;;5025436;28;20068;-45
2022/06/22 07:33:20;;;;;;;5.70;4.03;;;18.50;99.90;;;;;;5018129;28;20036;-46
2022/06/22 07:35:53;;;;;;;8.90;4.60;;;18.70;99.90;;;;;;5025670;28;20029;-46
2022/06/22 07:38:43;;;;;;;8.82;4.95;;;18.90;99.90;;;;;;5028619;28;20042;-46
2022/06/22 07:41:24;;;;;;;7.97;4.85;;;19.00;99.90;;;;;;5027561;28;20060;-45
2022/06/22 07:43:57;;;;;;;8.18;4.00;;;19.10;99.90;;;;;;5029171;28;20037;-44
2022/06/22 07:46:44;;;;;;;5.85;3.95;;;19.30;99.90;;;;;;5027955;28;20037;-46
2022/06/22 07:49:33;;;;;;;7.35;3.97;;;19.50;99.90;;;;;;5028684;28;20079;-47
2022/06/22 07:52:02;;;;;;;7.03;4.65;;;19.70;99.90;;;;;;5029495;28;20026;-46
2022/06/22 07:54:38;;;;;;;7.10;4.70;;;19.80;99.90;;;;;;5029369;28;20026;-46
2022/06/22 07:57:31;;;;;;;8.27;4.10;;;20.00;99.70;;;;;;5029088;28;20021;-46
2022/06/22 08:00:12;;;;;;;7.22;3.90;;;20.20;98.70;;;;;;5027317;28;20045;-47
2022/06/22 08:02:45;;;;;;;;;;;20.40;99.50;;;;;;5028933;28;20025;-45
2022/06/22 08:05:16;;;;;;;8.73;3.80;;;20.80;98.50;;;;;;5029183;28;19979;-45
2022/06/22 08:07:50;;;;;;;5.75;4.38;;;21.00;98.00;;;;;;5028171;28;20471;-48
2022/06/22 08:10:41;;;;;;;5.80;3.42;;;21.30;97.90;;;;;;5016473;28;20105;-45
2022/06/22 08:13:12;;;;;;;6.95;3.97;;;22.10;96.00;;;;;;5022117;28;20033;-45
2022/06/22 08:15:42;;;;;;;5.22;3.22;;;23.00;93.70;;;;;;5020139;28;20554;-45
2022/06/22 08:18:08;;;;;;;5.65;2.50;;;24.40;92.10;;;;;;5021152;28;20490;-46
2022/06/22 08:20:38;;;;;;;5.80;2.20;;;25.60;85.30;;;;;;5018873;28;20078;-45
2022/06/22 08:23:06;;;;;;;3.83;2.15;;;27.10;80.10;;;;;;5024117;28;20483;-46
2022/06/22 08:25:32;;;;;;;3.63;2.30;;;28.00;74.40;;;;;;5019500;28;20044;-48
2022/06/22 08:27:59;;;;;;;4.47;2.20;;;28.60;68.60;;;;;;5021863;28;20028;-47
2022/06/22 08:30:25;;;;;;;3.25;2.17;;;29.30;63.30;;;;;;5021569;28;20040;-46
2022/06/22 08:33:04;;;;;;;5.43;2.50;;;30.30;61.70;;;;;;5021794;28;20032;-48
2022/06/22 08:35:38;;;;;;;9.25;3.00;;;31.50;58.20;;;;;;5021413;28;20029;-46
2022/06/22 08:38:20;;;;;;;7.68;3.15;;;31.10;55.90;;;;;;5023805;28;20029;-48
2022/06/22 08:41:17;;;;;;;3.40;2.30;;;31.70;54.80;;;;;;5049910;28;20045;-50
2022/06/22 08:43:54;;;;;;;3.38;2.40;;;32.10;53.80;;;;;;5021160;28;20113;-47
2022/06/22 08:46:49;;;;;;;4.05;2.22;;;32.60;53.40;;;;;;5051148;28;20759;-49
2022/06/22 08:49:47;;;;;;;6.35;2.65;;;33.00;51.50;;;;;;5020788;28;20574;-48
2022/06/22 08:52:21;;;;;;;4.65;2.10;;;34.00;48.90;;;;;;5021891;28;20032;-47
2022/06/22 08:55:04;;;;;;;3.75;1.98;;;34.30;49.30;;;;;;5020797;28;20026;-47
2022/06/22 08:57:52;;;;;;;6.70;1.75;;;34.70;47.90;;;;;;5021035;28;20017;-47
2022/06/22 09:00:32;;;;;;;4.65;1.73;;;34.90;44.70;;;;;;5020579;28;20047;-49
2022/06/22 09:03:29;;;;;;;5.57;1.40;;;34.80;43.20;;;;;;5021526;28;20032;-46
2022/06/22 09:06:22;;;;;;;6.38;1.80;;;34.60;43.90;;;;;;5019906;28;20022;-46
2022/06/22 09:09:17;;;;;;;4.88;2.10;;;35.20;44.00;;;;;;5024833;28;20049;-48
2022/06/22 09:12:06;;;;;;;5.82;1.83;;;35.50;42.90;;;;;;5020504;28;20040;-48
2022/06/22 09:14:40;;;;;;;2.35;1.67;;;35.00;42.40;;;;;;5018094;28;20662;-47
2022/06/22 09:17:35;;;;;;;3.10;1.63;;;36.20;42.50;;;;;;5025669;28;20436;-46
2022/06/22 09:20:35;;;;;;;2.75;1.67;;;37.30;40.30;;;;;;5024223;28;20460;-46
2022/06/22 09:23:14;;;;;;;4.63;1.70;;;37.20;41.10;;;;;;5020090;28;20025;-49
2022/06/22 09:25:52;;;;;;;4.03;1.40;;;36.60;41.30;;;;;;5024080;28;20037;-49
2022/06/22 09:28:27;;;;;;;4.97;1.80;;;36.30;40.60;;;;;;5024150;28;20018;-47
2022/06/22 09:31:07;;;;;;;4.50;2.10;;;36.30;41.70;;;;;;5023963;28;20026;-46
2022/06/22 09:33:48;;;;;;;4.03;1.70;;;36.50;40.80;;;;;;5024836;28;20018;-46
2022/06/22 09:37:01;;;;;;;3.00;1.30;;;36.90;41.90;;;;;;5023498;28;20104;-45
2022/06/22 09:39:48;;;;;;;2.30;1.48;;;37.40;41.50;;;;;;5003916;28;20579;-46
2022/06/22 09:42:25;;;;;;;3.42;1.40;;;37.70;40.00;;;;;;5050850;28;20100;-47
2022/06/22 09:45:34;;;;;;;3.78;1.70;;;37.00;40.00;;;;;;5028159;28;20064;-47
2022/06/22 09:48:24;;;;;;;2.33;0.95;;;37.40;40.10;;;;;;5022020;28;20030;-48
2022/06/22 09:51:22;;;;;;;2.40;1.17;;;38.10;40.40;;;;;;5025486;28;20045;-48
2022/06/22 09:57:42;;;;;;;3.30;1.60;;;38.60;39.50;;;;;;5021860;28;20052;-49
2022/06/22 10:00:17;;;;;;;3.35;1.58;;;38.00;38.70;;;;;;5021803;28;20040;-45
2022/06/22 10:03:17;;;;;;;4.10;1.50;;;36.30;40.20;;;;;;5020068;28;20472;-45
2022/06/22 10:06:27;;;;;;;3.60;1.33;;;37.00;41.30;;;;;;5021926;28;20034;-46
2022/06/22 10:09:23;;;;;;;5.38;1.85;;;37.00;41.10;;;;;;5007454;28;20376;-48
2022/06/22 10:12:11;;;;;;;3.83;1.60;;;37.80;40.40;;;;;;5022026;28;20053;-45
2022/06/22 10:15:02;;;;;;;2.72;1.30;;;38.30;40.80;;;;;;5021539;28;20104;-46
2022/06/22 10:17:36;;;;;;;2.65;1.42;;;37.10;39.90;;;;;;5024773;28;20052;-45
2022/06/22 10:20:18;;;;;;;3.08;1.58;;;37.20;41.00;;;;;;5021676;28;20371;-46
2022/06/22 10:23:05;;;;;;;2.20;0.98;;;37.60;39.00;;;;;;5024031;28;20022;-45
2022/06/22 10:25:46;;;;;;;3.15;1.40;;;37.80;40.20;;;;;;5020432;28;20602;-45
2022/06/22 10:28:47;;;;;;;3.47;1.45;;;38.40;39.10;;;;;;5022843;28;20433;-49
2022/06/22 10:31:14;;;;;;;4.35;1.55;;;38.80;38.10;;;;;;5021229;28;20017;-48
2022/06/22 10:34:11;;;;;;;2.45;1.20;;;37.90;37.80;;;;;;5016627;28;20040;-46
2022/06/22 10:36:47;;;;;;;5.33;1.70;;;38.20;39.60;;;;;;5027550;28;20391;-48
2022/06/22 10:39:16;;;;;;;3.85;1.63;;;38.80;38.00;;;;;;5028748;28;20144;-48
2022/06/22 10:47:44;;;;;;;2.88;1.35;;;38.30;37.60;;;;;;5021022;28;20728;-48
2022/06/22 10:50:47;;;;;;;2.67;1.25;;;38.60;37.70;;;;;;5021517;28;20061;-47
2022/06/22 10:53:47;;;;;;;4.38;1.48;;;38.90;38.90;;;;;;5018328;28;20038;-46
2022/06/22 10:56:51;;;;;;;3.03;1.55;;;40.00;37.50;;;;;;5051339;28;20475;-46
2022/06/22 10:59:38;;;;;;;6.80;1.60;;;39.90;36.90;;;;;;5021173;28;20029;-49
2022/06/22 11:02:36;;;;;;;4.65;1.52;;;39.80;36.70;;;;;;5023347;28;20033;-49
2022/06/22 11:05:21;;;;;;;3.63;1.50;;;39.90;37.20;;;;;;5021970;28;20059;-48
2022/06/22 11:08:14;;;;;;;2.28;1.30;;;39.50;37.40;;;;;;5047405;28;20593;-47
2022/06/22 11:10:58;;;;;;;4.43;1.75;;;39.70;36.10;;;;;;5021021;28;20037;-48
2022/06/22 11:13:55;;;;;;;4.07;1.67;;;39.50;37.30;;;;;;5025300;28;20021;-48
2022/06/22 11:16:44;;;;;;;4.57;1.73;;;39.10;36.90;;;;;;5029498;28;20013;-49
2022/06/22 11:19:22;;;;;;;3.13;1.65;;;39.50;36.70;;;;;;5024015;28;20021;-50
2022/06/22 11:22:18;;;;;;;3.60;1.63;;;39.20;36.60;;;;;;5021746;28;20033;-48
2022/06/22 11:25:02;;;;;;;3.95;1.73;;;39.20;37.20;;;;;;5022780;28;20026;-49
2022/06/22 11:30:53;;;;;;;2.25;1.15;;;39.40;36.20;;;;;;5014256;28;20096;-50
2022/06/22 11:33:27;;;;;;;3.67;1.10;;;39.10;35.90;;;;;;5028428;28;20400;-47
2022/06/22 11:36:18;;;;;;;1.90;1.20;;;38.50;35.30;;;;;;5017650;28;20025;-47
2022/06/22 11:38:54;;;;;;;3.10;1.23;;;38.50;37.20;;;;;;5009505;28;20158;-46
2022/06/22 11:41:23;;;;;;;4.13;2.00;;;38.60;37.50;;;;;;5009147;28;20041;-47
2022/06/22 11:44:25;;;;;;;3.45;1.17;;;38.50;37.70;;;;;;5026199;28;20348;-46
2022/06/22 11:46:54;;;;;;;3.50;1.38;;;38.10;35.60;;;;;;5029698;28;20393;-44
2022/06/22 11:49:48;;;;;;;1.45;1.02;;;37.40;39.50;;;;;;5030921;28;20438;-45
2022/06/22 11:52:44;;;;;;;5.32;1.77;;;37.40;36.70;;;;;;5030875;28;20100;-45
2022/06/22 11:55:21;;;;;;;5.18;1.80;;;37.30;36.70;;;;;;5031102;28;20057;-45
2022/06/22 11:58:13;;;;;;;4.45;1.40;;;36.80;38.60;;;;;;5030406;28;20587;-47
2022/06/22 12:01:06;;;;;;;4.95;1.50;;;36.40;38.00;;;;;;5030397;28;20099;-45
2022/06/22 12:03:58;;;;;;;6.05;1.73;;;35.90;36.90;;;;;;5030514;28;20044;-46
2022/06/22 12:06:37;;;;;;;3.35;1.20;;;35.10;38.20;;;;;;5024455;28;20026;-45
2022/06/22 12:09:31;;;;;;;5.22;1.80;;;35.00;38.50;;;;;;5017302;28;20472;-47
2022/06/22 12:12:13;;;;;;;2.70;1.52;;;34.30;39.70;;;;;;5010748;28;20034;-48
2022/06/22 12:15:07;;;;;;;3.75;1.95;;;34.10;40.50;;;;;;5015104;28;20501;-47
2022/06/22 12:17:51;;;;;;;2.72;1.48;;;33.80;40.90;;;;;;5020502;28;20041;-44
2022/06/22 12:20:41;;;;;;;2.92;1.35;;;33.60;40.50;;;;;;5020593;28;20036;-45
2022/06/22 12:23:34;;;;;;;3.50;1.40;;;33.10;39.10;;;;;;5021096;28;20041;-46
2022/06/22 12:26:08;;;;;;;3.80;1.40;;;32.80;40.30;;;;;;5020426;28;20164;-47
2022/06/22 12:28:54;;;;;;;4.47;1.40;;;32.60;39.40;;;;;;5020212;28;20371;-46
2022/06/22 12:31:26;;;;;;;3.83;1.45;;;32.20;39.70;;;;;;5020055;28;20018;-47
2022/06/22 12:33:55;;;;;;;1.67;1.38;;;32.10;41.30;;;;;;5019980;28;20072;-45
2022/06/22 12:36:31;;;;;;;4.88;1.70;;;31.90;40.40;;;;;;5020066;28;20625;-45
2022/06/22 12:39:18;;;;;;;3.08;1.30;;;31.50;40.70;;;;;;5020114;28;20124;-48
2022/06/22 12:42:19;;;;;;;3.95;1.80;;;31.50;42.30;;;;;;5025770;28;20418;-48
2022/06/22 12:45:05;;;;;;;4.47;1.80;;;31.60;40.40;;;;;;5017571;28;20041;-45
2022/06/22 12:47:41;;;;;;;4.03;1.90;;;31.30;39.20;;;;;;5020107;28;20048;-47
2022/06/22 12:50:34;;;;;;;5.25;1.83;;;31.20;42.90;;;;;;5017621;28;20026;-47
2022/06/22 12:53:06;;;;;;;4.50;1.90;;;31.30;39.40;;;;;;5020491;28;20026;-48
2022/06/22 12:55:39;;;;;;;4.90;1.98;;;31.10;40.30;;;;;;5020606;28;20064;-48
2022/06/22 12:58:11;;;;;;;4.43;1.90;;;31.20;41.20;;;;;;5018915;28;20632;-45
2022/06/22 13:00:37;;;;;;;7.47;2.05;;;31.30;41.10;;;;;;5019664;28;20022;-46
2022/06/22 13:03:03;;;;;;;3.80;2.20;;;31.20;40.60;;;;;;5037255;28;20563;-44
2022/06/22 13:05:34;;;;;;;3.95;2.17;;;31.30;42.30;;;;;;5019946;28;20113;-44
2022/06/22 13:08:01;;;;;;;;;;;31.30;40.80;;;;;;5019405;28;20018;-44
2022/06/22 13:10:34;;;;;;;5.70;2.10;;;31.20;39.80;;;;;;5019321;28;19974;-44
2022/06/22 13:13:16;;;;;;;3.78;1.80;;;31.30;41.70;;;;;;5020919;28;20020;-45
2022/06/22 13:15:52;;;;;;;4.40;1.98;;;31.20;40.00;;;;;;5021206;28;20474;-44
2022/06/22 13:18:33;;;;;;;5.60;2.00;;;30.80;39.20;;;;;;5020815;28;20021;-45
2022/06/22 13:21:24;;;;;;;5.03;1.98;;;30.60;40.00;;;;;;5018015;28;20033;-43
2022/06/22 13:24:10;;;;;;;4.28;2.17;;;30.80;40.90;;;;;;5013737;28;20041;-44
2022/06/22 13:26:57;;;;;;;3.75;2.05;;;30.60;39.40;;;;;;5026062;28;20490;-49
2022/06/22 13:29:40;;;;;;;1.92;1.60;;;30.60;39.50;;;;;;5025477;28;20384;-44
2022/06/22 13:32:09;;;;;;;2.80;1.80;;;30.80;41.20;;;;;;5029216;28;20026;-48
2022/06/22 13:34:41;;;;;;;3.40;1.83;;;30.80;40.10;;;;;;5029584;28;20030;-45
2022/06/22 13:37:36;;;;;;;4.68;2.08;;;30.70;40.80;;;;;;5029802;28;20103;-46
2022/06/22 13:40:36;;;;;;;2.08;1.83;;;30.90;39.80;;;;;;5027611;28;20026;-45
2022/06/22 13:43:04;;;;;;;3.65;2.00;;;30.90;41.50;;;;;;5029411;28;20084;-45
2022/06/22 13:45:58;;;;;;;4.10;2.20;;;30.70;40.70;;;;;;5029751;28;20036;-48
2022/06/22 13:48:35;;;;;;;2.72;1.80;;;30.60;41.40;;;;;;5028260;28;20117;-48
2022/06/22 13:51:45;;;;;;;5.10;1.85;;;30.60;40.80;;;;;;5029299;28;20522;-48
2022/06/22 13:54:48;;;;;;;4.43;1.80;;;30.70;42.00;;;;;;5029837;28;20356;-47
2022/06/22 13:57:35;;;;;;;4.70;2.10;;;30.60;40.80;;;;;;5029255;28;20106;-46
2022/06/22 14:00:36;;;;;;;3.15;2.00;;;30.60;40.80;;;;;;5028831;28;20041;-46
2022/06/22 14:03:28;;;;;;;3.78;1.98;;;30.60;41.30;;;;;;5031425;28;20052;-45
2022/06/22 14:06:15;;;;;;;4.53;1.75;;;30.50;40.60;;;;;;5029085;28;20108;-48
2022/06/22 14:08:46;;;;;;;4.13;1.90;;;30.40;40.30;;;;;;5031934;28;20036;-47
2022/06/22 14:11:36;;;;;;;7.00;2.38;;;30.30;41.50;;;;;;5028220;28;20040;-47